Los Angeles, Texas
Current Conditions -  °F | °C
As of 1:53 AM on Sunday 26 Oct 2014 (Local Time) from KCOT Reporting Station
Clear Clear  
Wind Chill: 68°   Ceiling: Unl
Heat Index: 68°   Visibility: 10mi
Dew Point: 60°   Wind: 6mph
Humidity: 76%   Direction: 150°SSE
Pressure: 30.07"   Gusts: NA
Location:  28.4056°N, 99.0861°W
Report Text: KCOT 260653Z AUTO 15005KT 10SM CLR 20/16 A3007 RMK AO2 SLP175 T02000156
Loading
Personal Weather Stations






























Interactive Weather Map
Tropical Storm Tracking
New forecast layout! Learn more

10-Day Weather Forecast

Advertisements
Track Severe Weather on mobile